Jackson, NE

11:33 AM CDT on May 24, 2015 (GMT -0500)
Sioux Gateway | | Change Station
CLOSE
Current Station
Airport
Location: Sioux City,
Elevation: 1102 ft
Nearby Weather Stations

Elev 1102 ft 42.39 °N, 96.38 °W | Updated 28 minutes ago

Overcast
Overcast
63 °F
Feels Like 63 °F
N
7
Wind Variable Wind from East

Today
High -- | Low -- °F
--% Chance of Precip.
Yesterday
High -- | Low -- °F
Precip. -- in
5:56 AM 8:50 PM
Waxing Crescent, 40% visible
Pressure 29.85 in
Visibility 2.5 miles
Clouds Overcast 1000 ft
Dew Point 59 °F
Humidity 88%
Rainfall 0.35 in
Snow Depth Not available.
UV 3 out of 12
Pollen 2.90 out of 12
Air Quality Not available.
Flu Activity No Activity
SPECI KSUX 241605Z 09006KT 2 1/2SM OVC010 17/15 A2985

More Conditions Fewer Conditions

Pressure 29.85 in
Visibility 2.5 miles
Clouds Overcast 1000 ft
Dew Point 59 °F
Humidity 88%
Rainfall 0.35 in
Snow Depth Not available.
UV 3 out of 12
Pollen 2.90 out of 12
Air Quality Not available.
Flu Activity No Activity
SPECI KSUX 241605Z 09006KT 2 1/2SM OVC010 17/15 A2985

More Conditions Fewer Conditions

10-Day Weather Forecast

Almanac

Astronomy

May. 24, 2015 Rise Set
Actual Time
Civil Twilight
Nautical Twilight
Astronomical Twilight
Moon
Length of Visible Light
Length of Day
Tomorrow will be .
, % of the Moon is Illuminated

Today's Extremes

State Highs State Lows

Community

WunderPhotos

Upload Photos

1,823,777 photos uploaded!

WunderBlogs® & News

Nearby

Air Quality

  Air Quality AQ Index Pollutant
Not available.

Snow Depth

Station Depth Elevation

Earthquake Activity

City Distance Mag. Time & Date
Minimum magnitude displayed is 2.5.

Coastal Water Temperatures

Place Temperature

Stations

Nearby Weather Stations

Station Location Temp. Windchill Dew Point Humidity Wind Precip. Elev Updated Type